Time;durP1;ratioP1;P1;durP2;ratioP2;P2;SDS_P1;SDS_P2;PMS_P1;PMS_P2;Temp;Humidity;BMP_temperature;BMP_pressure;BME280_temperature;BME280_humidity;BME280_pressure;Samples;Min_cycle;Max_cycle;Signal;HPM_P1;HPM_P2
2022/12/02 00:00:31;;;;;;;;;;;6.70;65.80;;;1.77;93.88;95704.88;4985696;28;19944;-49
2022/12/02 00:03:00;;;;;;;;;;;6.70;65.90;;;1.79;94.33;95709.94;5009037;28;19910;-48
2022/12/02 00:05:32;;;;;;;;;;;6.70;65.80;;;1.79;94.34;95696.81;5004480;28;20072;-49
2022/12/02 00:08:29;;;;;;;;;;;6.70;65.80;;;1.76;94.66;95702.47;4973176;28;20292;-52
2022/12/02 00:11:05;;;;;;;;;;;6.70;65.80;;;1.77;94.85;95702.25;4993414;28;19913;-49
2022/12/02 00:13:43;;;;;;;;;;;6.70;65.90;;;1.76;94.53;95697.22;4995166;28;19967;-49
2022/12/02 00:16:20;;;;;;;;;;;6.70;65.90;;;1.80;94.27;95691.34;4995326;28;20386;-50
2022/12/02 00:18:47;;;;;;;;;;;6.70;65.90;;;1.81;94.46;95700.81;5010934;28;19913;-50
2022/12/02 00:21:12;;;;;;;;;;;6.70;65.90;;;1.79;94.52;95697.63;5012785;28;19956;-51
2022/12/02 00:23:44;;;;;;;;;;;6.70;65.90;;;1.78;94.80;95692.56;4993733;28;19956;-49
2022/12/02 00:26:13;;;;;;;;;;;6.70;65.90;;;1.73;95.27;95697.63;4979924;28;20319;-49
2022/12/02 00:28:39;;;;;;;;;;;6.70;65.90;;;1.76;94.77;95698.03;5011412;28;19916;-49
2022/12/02 00:31:11;;;;;;;;;;;6.70;65.90;;;1.73;95.42;95693.19;4993875;28;19913;-53
2022/12/02 00:33:36;;;;;;;;;;;6.70;66.60;;;1.74;95.80;95692.16;5012678;28;19944;-51
2022/12/02 00:36:11;;;;;;;;;;;6.70;65.90;;;1.69;96.43;95686.72;4993660;28;20002;-48
2022/12/02 00:38:37;;;;;;;;;;;6.70;65.90;;;1.72;95.54;95691.53;4995303;28;20440;-53
2022/12/02 00:41:03;;;;;;;;;;;6.70;65.90;;;1.75;95.41;95693.75;4995103;28;19999;-50
2022/12/02 00:46:31;;;;;;;;;;;6.70;65.90;;;1.72;95.08;95688.13;4997654;28;19916;-52
2022/12/02 00:49:09;;;;;;;;;;;6.70;65.90;;;1.67;95.47;95682.69;4996629;28;20456;-50
2022/12/02 00:51:37;;;;;;;;;;;6.70;65.80;;;1.67;95.52;95685.31;4994767;28;19913;-49
2022/12/02 00:54:06;;;;;;;;;;;6.70;65.90;;;1.69;95.36;95688.53;5011106;28;20286;-52
2022/12/02 00:56:34;;;;;;;;;;;6.70;65.80;;;1.69;95.47;95689.34;4966716;28;20000;-49
2022/12/02 00:59:00;;;;;;;;;;;6.70;65.90;;;1.70;95.41;95684.91;4993614;28;19931;-49
2022/12/02 01:01:28;;;;;;;;;;;6.70;65.90;;;1.70;95.84;95683.09;5008576;28;19924;-49
2022/12/02 01:03:54;;;;;;;;;;;6.70;65.90;;;1.70;95.53;95685.72;5017215;28;19912;-51
2022/12/02 01:06:20;;;;;;;;;;;6.70;66.00;;;1.68;95.22;95685.09;4992912;28;19935;-52
2022/12/02 01:08:46;;;;;;;;;;;6.70;66.00;;;1.68;95.70;95686.94;4994406;28;19967;-48
2022/12/02 01:11:12;;;;;;;;;;;6.70;65.90;;;1.68;95.92;95684.31;5010765;28;20375;-52
2022/12/02 01:13:38;;;;;;;;;;;6.70;65.90;;;1.71;95.33;95687.31;5010789;28;19940;-49
2022/12/02 01:16:04;;;;;;;;;;;6.70;65.90;;;1.65;96.06;95692.59;5011842;28;19959;-50
2022/12/02 01:18:31;;;;;;;;;;;6.70;65.90;;;1.67;95.52;95686.13;5010689;28;19963;-49
2022/12/02 01:20:57;;;;;;;;;;;6.70;65.90;;;1.63;95.67;95684.94;5011396;28;20291;-49
2022/12/02 01:23:32;;;;;;;;;;;6.70;65.90;;;1.60;96.44;95683.53;4976745;28;19913;-53
2022/12/02 01:25:57;;;;;;;;;;;6.70;65.90;;;1.65;95.94;95679.47;5011745;28;20412;-51
2022/12/02 01:28:23;;;;;;;;;;;6.70;65.90;;;1.62;95.95;95686.72;5011705;28;19941;-50
2022/12/02 01:30:49;;;;;;;;;;;6.70;65.90;;;1.61;95.72;95686.94;5011050;28;20386;-49
2022/12/02 01:33:15;;;;;;;;;;;6.70;65.90;;;1.54;95.92;95681.72;4993508;28;19913;-51
2022/12/02 01:35:53;;;;;;;;;;;6.70;65.90;;;1.57;96.38;95686.56;5011082;28;20344;-49
2022/12/02 01:38:18;;;;;;;;;;;6.70;65.90;;;1.59;95.83;95681.09;4994175;28;19917;-49
2022/12/02 01:40:47;;;;;;;;;;;6.60;65.90;;;1.56;95.79;95679.66;4992978;28;20271;-48
2022/12/02 01:43:14;;;;;;;;;;;6.60;65.90;;;1.59;95.88;95681.88;4992231;28;20003;-49
2022/12/02 01:45:40;;;;;;;;;;;6.60;65.90;;;1.60;95.68;95683.53;4977663;28;19909;-53
2022/12/02 01:48:07;;;;;;;;;;;6.60;66.00;;;1.62;95.66;95691.97;4993034;28;20067;-50
2022/12/02 01:50:36;;;;;;;;;;;6.60;66.00;;;1.58;96.16;95682.91;4998674;28;19913;-49
2022/12/02 01:53:02;;;;;;;;;;;6.60;66.00;;;1.59;96.25;95684.50;5011044;28;20260;-52
2022/12/02 01:55:28;;;;;;;;;;;6.60;66.00;;;1.63;95.82;95682.31;5009996;28;19916;-50
2022/12/02 01:57:57;;;;;;;;;;;6.60;66.00;;;1.58;96.05;95682.91;5011151;28;19913;-50
2022/12/02 02:00:27;;;;;;;;;;;6.60;66.00;;;1.53;96.91;95674.81;4992671;28;20359;-48
2022/12/02 02:02:53;;;;;;;;;;;6.70;66.90;;;1.53;96.77;95685.31;5010763;28;19967;-51
2022/12/02 02:05:24;;;;;;;;;;;6.60;66.00;;;1.56;96.54;95682.28;5009851;28;20374;-50
2022/12/02 02:07:57;;;;;;;;;;;6.60;66.00;;;1.59;96.38;95681.88;4994132;28;19955;-49
2022/12/02 02:10:25;;;;;;;;;;;6.60;66.00;;;1.58;96.51;95679.47;5010993;28;19913;-53
2022/12/02 02:12:52;;;;;;;;;;;6.60;66.00;;;1.59;96.26;95679.25;4992058;28;20019;-54
2022/12/02 02:15:20;;;;;;;;;;;6.60;66.00;;;1.60;95.90;95683.53;4976684;28;19909;-50
2022/12/02 02:17:54;;;;;;;;;;;6.60;66.00;;;1.58;96.35;95677.66;4992956;28;19970;-48
2022/12/02 02:20:23;;;;;;;;;;;6.60;66.00;;;1.59;96.23;95681.88;4993679;28;19913;-51
2022/12/02 02:23:07;;;;;;;;;;;6.60;66.10;;;1.56;97.08;95679.66;4976996;28;19916;-51
2022/12/02 02:25:44;;;;;;;;;;;6.60;66.10;;;1.58;96.59;95672.41;4991346;28;19921;-51
2022/12/02 02:28:10;;;;;;;;;;;6.60;66.10;;;1.60;96.78;95667.75;5011219;28;20367;-49
2022/12/02 02:30:40;;;;;;;;;;;6.60;66.10;;;1.56;97.08;95677.03;4971924;28;19983;-51
2022/12/02 02:33:09;;;;;;;;;;;6.60;66.90;;;1.56;97.05;95677.03;4993102;28;20443;-49
2022/12/02 02:35:38;;;;;;;;;;;6.60;66.20;;;1.58;96.99;95666.34;4992294;28;19971;-56
2022/12/02 02:38:08;;;;;;;;;;;6.60;66.20;;;1.56;96.88;95668.38;4983358;28;19916;-50
2022/12/02 02:40:34;;;;;;;;;;;6.60;66.20;;;1.54;97.26;95663.34;4989986;28;20279;-52
2022/12/02 02:43:02;;;;;;;;;;;6.60;66.20;;;1.55;97.31;95667.56;4975823;28;20429;-49
2022/12/02 02:45:34;;;;;;;;;;;6.60;66.20;;;1.57;96.89;95660.31;4959521;28;19909;-49
2022/12/02 02:48:04;;;;;;;;;;;6.60;66.30;;;1.58;96.62;95658.47;4969297;28;19916;-51
2022/12/02 02:50:32;;;;;;;;;;;6.60;66.20;;;1.54;97.19;95665.97;4993713;28;19913;-48
2022/12/02 02:53:00;;;;;;;;;;;6.60;66.20;;;1.55;97.10;95651.00;5010173;28;19909;-49
2022/12/02 02:55:32;;;;;;;;;;;6.60;66.20;;;1.50;97.31;95648.97;4991977;28;19931;-54
2022/12/02 02:58:18;;;;;;;;;;;6.60;66.10;;;1.52;97.57;95646.16;4976958;28;20410;-50
2022/12/02 03:01:25;;;;;;;;;;;6.60;66.10;;;1.54;97.49;95638.91;4991221;28;19913;-55
2022/12/02 03:03:58;;;;;;;;;;;6.60;66.20;;;1.56;97.20;95642.09;4976768;28;19913;-51
2022/12/02 03:06:36;;;;;;;;;;;6.60;66.30;;;1.55;97.06;95638.69;5009463;28;20040;-53
2022/12/02 03:09:05;;;;;;;;;;;6.60;66.20;;;1.54;97.30;95644.97;5010176;28;20044;-49
2022/12/02 03:11:37;;;;;;;;;;;6.60;66.20;;;1.52;97.40;95630.41;4992478;28;20024;-53
2022/12/02 03:14:05;;;;;;;;;;;6.60;66.20;;;1.47;97.71;95628.41;4993430;28;19968;-49
2022/12/02 03:16:32;;;;;;;;;;;6.50;66.20;;;1.44;97.46;95633.25;4993303;28;20125;-51
2022/12/02 03:18:59;;;;;;;;;;;6.50;66.20;;;1.46;97.79;95628.63;4991915;28;19909;-49
2022/12/02 03:21:27;;;;;;;;;;;6.50;66.20;;;1.45;98.25;95632.25;4992741;28;19966;-50
2022/12/02 03:23:59;;;;;;;;;;;6.50;66.20;;;1.46;98.01;95637.28;5008462;28;19917;-49
2022/12/02 03:26:35;;;;;;;;;;;6.50;66.30;;;1.48;98.26;95632.66;4979039;28;20386;-50
2022/12/02 03:29:10;;;;;;;;;;;6.50;66.40;;;1.48;98.28;95632.66;4996768;28;20397;-49
2022/12/02 03:31:37;;;;;;;;;;;6.50;66.40;;;1.49;98.05;95631.63;4995271;28;19909;-50
2022/12/02 03:34:03;;;;;;;;;;;6.40;66.40;;;1.48;97.83;95632.66;4995907;28;19962;-50
2022/12/02 03:36:35;;;;;;;;;;;6.50;66.60;;;1.43;98.20;95629.03;4994791;28;19909;-50
2022/12/02 03:39:06;;;;;;;;;;;6.50;66.60;;;1.42;98.50;95630.03;4996677;28;19947;-51
2022/12/02 03:41:36;;;;;;;;;;;6.40;66.40;;;1.42;98.61;95625.59;4995298;28;19917;-49
2022/12/02 03:44:02;;;;;;;;;;;6.40;66.50;;;1.38;98.64;95625.22;5013620;28;19920;-50
2022/12/02 03:46:29;;;;;;;;;;;6.40;66.50;;;1.39;98.51;95624.19;4996035;28;20291;-52
2022/12/02 03:48:57;;;;;;;;;;;6.40;66.60;;;1.41;98.59;95624.00;4995115;28;19958;-49
2022/12/02 03:51:35;;;;;;;;;;;6.40;66.70;;;1.34;98.91;95625.81;4996022;28;20002;-52
2022/12/02 03:54:01;;;;;;;;;;;6.40;66.60;;;1.34;98.72;95621.34;4994970;28;19921;-52
2022/12/02 03:56:27;;;;;;;;;;;6.40;66.60;;;1.36;98.86;95621.97;4996068;28;19909;-50
2022/12/02 03:58:56;;;;;;;;;;;6.40;66.60;;;1.42;98.48;95622.97;4960407;28;19932;-51
2022/12/02 04:01:23;;;;;;;;;;;6.30;66.60;;;1.45;98.42;95612.06;5001410;28;19917;-52
2022/12/02 04:03:48;;;;;;;;;;;6.40;66.70;;;1.45;98.16;95614.69;4990079;28;19931;-52
2022/12/02 04:06:14;;;;;;;;;;;6.40;66.70;;;1.43;98.09;95615.91;5012407;28;19909;-50
2022/12/02 04:08:40;;;;;;;;;;;6.40;66.70;;;1.44;98.25;95617.50;4994707;28;20389;-48
2022/12/02 04:11:06;;;;;;;;;;;6.40;66.70;;;1.48;97.93;95616.09;4994704;28;19965;-51
2022/12/02 04:13:32;;;;;;;;;;;6.40;66.70;;;1.53;97.70;95611.00;4969794;28;19913;-49
2022/12/02 04:16:05;;;;;;;;;;;6.40;66.70;;;1.51;97.72;95613.88;5005085;28;20371;-53
2022/12/02 04:18:33;;;;;;;;;;;6.50;66.70;;;1.52;97.75;95612.03;4993799;28;19912;-51
2022/12/02 04:21:05;;;;;;;;;;;6.40;66.70;;;1.52;97.90;95610.22;5011838;28;19917;-49
2022/12/02 04:26:04;;;;;;;;;;;6.40;66.60;;;1.54;97.38;95607.41;5016592;28;20007;-52
2022/12/02 04:28:30;;;;;;;;;;;6.50;66.70;;;1.53;97.48;95601.31;5010993;28;20012;-51
2022/12/02 04:30:56;;;;;;;;;;;6.50;66.70;;;1.52;97.36;95599.72;4993369;28;20032;-52
2022/12/02 04:33:22;;;;;;;;;;;6.50;66.70;;;1.52;97.38;95598.91;4974213;28;19910;-51
2022/12/02 04:35:51;;;;;;;;;;;6.50;66.70;;;1.54;97.70;95599.53;4982661;28;19909;-52
2022/12/02 04:38:19;;;;;;;;;;;6.50;66.70;;;1.55;97.39;95593.25;4971639;28;20291;-53
2022/12/02 04:40:48;;;;;;;;;;;6.50;66.70;;;1.55;97.39;95588.78;5007353;28;19913;-53
2022/12/02 04:43:22;;;;;;;;;;;6.50;66.70;;;1.55;97.17;95594.03;5010821;28;19931;-53
2022/12/02 04:45:48;;;;;;;;;;;6.50;66.70;;;1.55;97.61;95595.88;4994567;28;19913;-51
2022/12/02 04:48:13;;;;;;;;;;;6.50;66.70;;;1.55;97.57;95593.25;4993681;28;20326;-51
2022/12/02 04:50:42;;;;;;;;;;;6.50;66.70;;;1.56;97.65;95593.03;4993905;28;19944;-51
2022/12/02 04:53:08;;;;;;;;;;;6.50;66.70;;;1.58;97.46;95592.84;5011257;28;20346;-52
2022/12/02 04:55:34;;;;;;;;;;;6.50;66.70;;;1.57;97.41;95597.28;5010750;28;19913;-54
2022/12/02 04:57:59;;;;;;;;;;;6.60;66.80;;;1.58;97.59;95600.72;4994155;28;19916;-51
2022/12/02 05:00:25;;;;;;;;;;;6.60;66.80;;;1.58;97.42;95596.25;5010457;28;19913;-54
2022/12/02 05:02:51;;;;;;;;;;;6.60;66.70;;;1.57;96.76;95596.47;4988837;28;19910;-52
2022/12/02 05:05:17;;;;;;;;;;;6.60;66.70;;;1.58;96.67;95601.50;5006950;28;19913;-51
2022/12/02 05:07:45;;;;;;;;;;;6.60;66.70;;;1.57;97.25;95599.91;4992599;28;19956;-51
2022/12/02 05:10:14;;;;;;;;;;;6.60;66.70;;;1.59;97.08;95599.69;4993498;28;19913;-51
2022/12/02 05:12:40;;;;;;;;;;;6.60;66.70;;;1.57;96.98;95592.03;5009712;28;19909;-51
2022/12/02 05:15:13;;;;;;;;;;;6.60;66.70;;;1.59;96.90;95597.06;4993494;28;19924;-51
2022/12/02 05:17:41;;;;;;;;;;;6.60;66.60;;;1.57;96.38;95596.47;4976504;28;19913;-55
2022/12/02 05:20:10;;;;;;;;;;;6.60;66.60;;;1.57;96.73;95597.28;4968870;28;19909;-51
2022/12/02 05:22:36;;;;;;;;;;;6.60;66.60;;;1.59;96.39;95600.50;5010174;28;20371;-52
2022/12/02 05:25:05;;;;;;;;;;;6.60;66.60;;;1.57;96.55;95593.84;5004681;28;19951;-53
2022/12/02 05:27:34;;;;;;;;;;;6.60;66.60;;;1.55;96.86;95595.88;4993813;28;19909;-51
2022/12/02 05:30:07;;;;;;;;;;;6.60;66.60;;;1.54;97.07;95594.28;5010242;28;20055;-51
2022/12/02 05:32:33;;;;;;;;;;;6.70;66.60;;;1.55;97.15;95594.03;4992935;28;19913;-56
2022/12/02 05:35:02;;;;;;;;;;;6.60;66.50;;;1.60;97.37;95593.44;4976745;28;19917;-51
2022/12/02 05:37:28;;;;;;;;;;;6.60;66.50;;;1.60;96.98;95593.44;4976099;28;20261;-51
2022/12/02 05:39:58;;;;;;;;;;;6.70;66.60;;;1.59;96.63;95597.06;5010653;28;19913;-51
2022/12/02 05:42:32;;;;;;;;;;;6.70;66.60;;;1.57;96.80;95592.03;4983078;28;20332;-53
2022/12/02 05:45:22;;;;;;;;;;;6.70;66.60;;;1.54;96.70;95592.44;4997803;28;19917;-52
2022/12/02 05:47:55;;;;;;;;;;;6.60;66.50;;;1.56;96.98;95598.28;4992665;28;19953;-55
2022/12/02 05:50:22;;;;;;;;;;;6.70;66.50;;;1.58;96.93;95595.47;5006228;28;21353;-55
2022/12/02 05:52:50;;;;;;;;;;;6.70;66.50;;;1.59;96.73;95597.88;5009642;28;20435;-55
2022/12/02 05:55:20;;;;;;;;;;;6.70;66.50;;;1.59;96.62;95597.06;5009258;28;20360;-52
2022/12/02 05:57:47;;;;;;;;;;;6.70;66.50;;;1.56;96.59;95597.47;4992849;28;19916;-51
2022/12/02 06:00:21;;;;;;;;;;;6.70;67.20;;;1.56;96.80;95605.34;4989743;28;19915;-51
2022/12/02 06:02:57;;;;;;;;;;;6.70;66.40;;;1.56;96.88;95600.09;4983502;28;19909;-52
2022/12/02 06:05:26;;;;;;;;;;;6.70;66.40;;;1.58;96.98;95600.72;5005103;28;19959;-51
2022/12/02 06:07:57;;;;;;;;;;;6.70;66.40;;;1.58;96.49;95600.72;5010126;28;20004;-53
2022/12/02 06:10:31;;;;;;;;;;;6.70;66.40;;;1.56;96.71;95600.91;4986451;28;19913;-51
2022/12/02 06:13:38;;;;;;;;;;;6.80;66.40;;;1.57;96.66;95601.72;4986393;28;20315;-51
2022/12/02 06:16:20;;;;;;;;;;;6.70;66.30;;;1.57;96.45;95602.53;4949376;28;19958;-51
2022/12/02 06:18:48;;;;;;;;;;;6.70;66.40;;;1.54;96.59;95597.69;4933468;28;19914;-53
2022/12/02 06:21:20;;;;;;;;;;;6.70;66.40;;;1.54;96.93;95602.16;4901729;28;20013;-55
2022/12/02 06:23:51;;;;;;;;;;;6.70;66.40;;;1.55;97.06;95603.75;4932699;28;19925;-53
2022/12/02 06:26:20;;;;;;;;;;;6.70;66.40;;;1.56;97.10;95600.91;4933739;28;19950;-56
2022/12/02 06:28:58;;;;;;;;;;;6.70;66.40;;;1.60;96.47;95596.06;4949427;28;19910;-52
2022/12/02 06:31:37;;;;;;;;;;;6.70;66.40;;;1.58;96.19;95596.25;4932584;29;19917;-53
2022/12/02 06:34:37;;;;;;;;;;;6.70;66.40;;;1.59;96.37;95600.50;4933162;29;19914;-55
2022/12/02 06:37:30;;;;;;;;;;;6.70;66.40;;;1.58;96.33;95600.72;4928468;29;20431;-52
2022/12/02 06:40:00;;;;;;;;;;;6.70;66.40;;;1.59;96.21;95597.06;4941494;29;19910;-53
2022/12/02 06:42:34;;;;;;;;;;;6.70;66.40;;;1.59;96.31;95599.69;4925435;29;20009;-53
2022/12/02 06:45:33;;;;;;;;;;;6.70;66.40;;;1.58;96.04;95595.47;4932612;29;19910;-55
2022/12/02 06:48:31;;;;;;;;;;;6.70;66.40;;;1.60;95.53;95596.06;4990044;28;19924;-53
2022/12/02 06:51:11;;;;;;;;;;;6.70;66.30;;;1.59;95.93;95597.06;4991655;28;19913;-51
2022/12/02 06:53:41;;;;;;;;;;;6.70;66.40;;;1.61;95.94;95597.66;4971724;28;19913;-51
2022/12/02 06:56:16;;;;;;;;;;;6.70;66.40;;;1.60;96.19;95598.69;4896507;28;20299;-54
2022/12/02 06:58:52;;;;;;;;;;;6.70;66.40;;;1.60;96.07;95602.13;4990726;28;19913;-55
2022/12/02 07:01:26;;;;;;;;;;;6.70;66.40;;;1.60;95.75;95601.31;4997283;28;20081;-57
2022/12/02 07:04:09;;;;;;;;;;;6.70;66.40;;;1.56;95.96;95597.47;4980467;28;19917;-51
2022/12/02 07:06:53;;;;;;;;;;;6.70;66.40;;;1.57;96.75;95601.72;4983734;28;19916;-55
2022/12/02 07:09:30;;;;;;;;;;;6.70;66.40;;;1.56;96.38;95603.53;4996250;28;19923;-54
2022/12/02 07:11:59;;;;;;;;;;;6.70;66.40;;;1.59;95.84;95600.50;5004117;28;19920;-53
2022/12/02 07:14:43;;;;;;;;;;;6.70;66.40;;;1.60;96.02;95596.88;4994754;28;19909;-51
2022/12/02 07:17:34;;;;;;;;;;;6.70;66.40;;;1.60;95.69;95602.13;5010122;28;19951;-52
2022/12/02 07:20:22;;;;;;;;;;;6.70;66.40;;;1.61;96.12;95600.28;5003690;28;19976;-53
2022/12/02 07:23:01;;;;;;;;;;;6.70;66.40;;;1.61;96.16;95602.91;4994787;28;20465;-55
2022/12/02 07:25:54;;;;;;;;;;;6.70;66.40;;;1.57;96.42;95604.34;4971635;28;20414;-51
2022/12/02 07:28:40;;;;;;;;;;;6.70;66.40;;;1.57;95.99;95602.53;4984515;28;19910;-51
2022/12/02 07:31:28;;;;;;;;;;;6.80;66.40;;;1.53;96.87;95597.88;4991034;28;20369;-51
2022/12/02 07:33:57;;;;;;;;;;;6.70;66.30;;;1.58;96.51;95595.47;4991176;28;19914;-53
2022/12/02 07:36:22;;;;;;;;;;;6.70;66.40;;;1.54;96.43;95602.94;4991100;28;19987;-52
2022/12/02 07:38:51;;;;;;;;;;;6.70;66.30;;;1.62;96.08;95601.91;4993085;28;19937;-54
2022/12/02 07:41:18;;;;;;;;;;;6.80;66.30;;;1.65;95.53;95600.69;4979502;28;20568;-54
2022/12/02 07:43:44;;;;;;;;;;;6.80;66.40;;;1.67;96.06;95594.22;4989594;28;20612;-52
2022/12/02 07:46:10;;;;;;;;;;;6.80;66.40;;;1.70;95.78;95593.78;4991504;28;19999;-55
2022/12/02 07:48:40;;;;;;;;;;;6.80;66.30;;;1.73;95.23;95595.22;4981897;28;19917;-52
2022/12/02 07:51:06;;;;;;;;;;;6.80;66.40;;;1.73;95.32;95598.63;4993103;28;19916;-52
2022/12/02 07:53:35;;;;;;;;;;;6.80;66.40;;;1.77;95.39;95596.38;4991930;28;20360;-52
2022/12/02 07:56:05;;;;;;;;;;;6.80;66.30;;;1.76;95.21;95594.78;4993166;28;19909;-52
2022/12/02 07:58:30;;;;;;;;;;;6.80;66.30;;;1.72;94.94;95596.19;4992762;28;19913;-53
2022/12/02 08:00:56;;;;;;;;;;;6.80;66.30;;;1.72;94.97;95596.19;4990889;28;19918;-53
2022/12/02 08:03:25;;;;;;;;;;;6.80;66.20;;;1.76;95.24;95594.78;4990706;28;20454;-51
2022/12/02 08:05:51;;;;;;;;;;;6.80;66.20;;;1.71;95.27;95587.53;4992158;28;20372;-51
2022/12/02 08:08:19;;;;;;;;;;;6.90;66.20;;;1.75;95.43;95590.53;4991844;28;19917;-52
2022/12/02 08:10:45;;;;;;;;;;;6.90;66.20;;;1.80;94.87;95588.09;4992739;28;19910;-52
2022/12/02 08:13:11;;;;;;;;;;;6.90;66.20;;;1.81;95.01;95593.13;4988827;28;19910;-52
2022/12/02 08:15:37;;;;;;;;;;;6.90;66.20;;;1.82;94.43;95596.59;4992733;28;19967;-51
2022/12/02 08:18:06;;;;;;;;;;;6.90;66.20;;;1.82;94.83;95586.88;4980694;28;19913;-51
2022/12/02 08:20:31;;;;;;;;;;;6.90;66.20;;;1.85;94.67;95590.91;4991089;28;20186;-51
2022/12/02 08:23:04;;;;;;;;;;;7.00;66.20;;;1.89;94.54;95597.34;4991874;28;20379;-52
2022/12/02 08:25:29;;;;;;;;;;;7.00;66.20;;;1.90;94.50;95595.53;4973830;28;19944;-52
2022/12/02 08:27:55;;;;;;;;;;;7.00;66.10;;;1.91;94.65;95597.13;4989633;28;19921;-56
2022/12/02 08:30:33;;;;;;;;;;;7.10;66.10;;;1.94;94.42;95592.25;4896521;28;21560;-53
2022/12/02 08:32:59;;;;;;;;;;;7.10;66.10;;;1.98;94.40;95603.19;4991714;28;20439;-54
2022/12/02 08:35:24;;;;;;;;;;;7.10;66.00;;;2.00;94.15;95599.28;4992323;28;20016;-56
2022/12/02 08:37:50;;;;;;;;;;;7.20;66.00;;;2.03;93.43;95598.88;4974145;28;19949;-55
2022/12/02 08:40:18;;;;;;;;;;;7.20;65.90;;;2.07;93.77;95599.28;4974720;28;20008;-53
2022/12/02 08:42:50;;;;;;;;;;;7.20;65.90;;;2.09;93.68;95600.66;4984115;28;19996;-56
2022/12/02 08:45:18;;;;;;;;;;;7.30;66.00;;;2.07;93.55;95594.84;4974306;28;19951;-54
2022/12/02 08:47:44;;;;;;;;;;;7.30;65.80;;;2.07;93.38;95597.47;4971557;28;20007;-56
2022/12/02 08:50:10;;;;;;;;;;;7.30;65.80;;;2.09;93.53;95598.03;4974291;28;20015;-57
2022/12/02 08:52:36;;;;;;;;;;;7.40;65.80;;;2.11;93.15;95602.28;4991404;28;20350;-57
2022/12/02 08:55:02;;;;;;;;;;;7.40;65.80;;;2.14;93.25;95596.63;4977413;28;20004;-54
2022/12/02 08:57:30;;;;;;;;;;;7.40;65.70;;;2.17;93.19;95591.75;4950016;28;19917;-55
2022/12/02 08:59:59;;;;;;;;;;;7.40;65.70;;;2.21;93.00;95592.13;4991481;28;20280;-56
2022/12/02 09:02:24;;;;;;;;;;;7.40;65.70;;;2.23;92.60;95592.72;4989347;28;19917;-55
2022/12/02 09:04:50;;;;;;;;;;;7.40;65.70;;;2.25;92.98;95588.03;4992858;28;20272;-55
2022/12/02 09:07:16;;;;;;;;;;;7.40;65.70;;;2.25;92.46;95594.09;4990908;28;20113;-56
2022/12/02 09:09:42;;;;;;;;;;;7.40;65.70;;;2.24;92.71;95591.69;4981554;28;19916;-55
2022/12/02 09:12:08;;;;;;;;;;;7.40;65.70;;;2.25;92.67;95582.78;4995095;28;19913;-53
2022/12/02 09:14:34;;;;;;;;;;;7.40;65.60;;;2.26;92.67;95587.03;4992041;28;20304;-55
2022/12/02 09:17:02;;;;;;;;;;;7.40;65.70;;;2.28;92.71;95591.03;4987743;28;20307;-55
2022/12/02 09:19:28;;;;;;;;;;;7.40;65.60;;;2.30;92.71;95591.66;4987386;28;20384;-52
2022/12/02 09:21:54;;;;;;;;;;;7.40;65.60;;;2.31;92.83;95593.25;4990442;28;19964;-53
2022/12/02 09:24:28;;;;;;;;;;;7.40;65.60;;;2.29;92.63;95590.06;4981185;28;19944;-52
2022/12/02 09:26:54;;;;;;;;;;;7.40;65.60;;;2.31;92.74;95588.00;4991394;28;19944;-55
2022/12/02 09:29:20;;;;;;;;;;;7.40;65.60;;;2.31;92.33;95593.25;4989069;28;20371;-57
2022/12/02 09:31:46;;;;;;;;;;;7.40;65.60;;;2.30;93.04;95590.84;4988494;28;19909;-56
2022/12/02 09:34:11;;;;;;;;;;;7.40;65.60;;;2.30;92.69;95593.47;4981471;28;19932;-56
2022/12/02 09:36:37;;;;;;;;;;;7.40;65.50;;;2.30;92.97;95589.03;4980834;28;20406;-53
2022/12/02 09:39:03;;;;;;;;;;;7.40;65.50;;;2.32;93.04;95594.09;4983454;28;19917;-54
2022/12/02 09:41:29;;;;;;;;;;;7.50;65.50;;;2.35;92.92;95591.03;4988625;28;19917;-52
2022/12/02 09:43:55;;;;;;;;;;;7.40;65.50;;;2.37;92.92;95594.25;4967817;28;19913;-53
2022/12/02 09:46:21;;;;;;;;;;;7.40;65.50;;;2.37;92.95;95591.59;4971643;28;19944;-53
2022/12/02 09:48:48;;;;;;;;;;;7.50;65.50;;;2.36;93.05;95594.47;4980691;28;20356;-54
2022/12/02 09:51:14;;;;;;;;;;;7.50;65.50;;;2.34;92.69;95580.72;4989408;28;19909;-53
2022/12/02 09:53:41;;;;;;;;;;;7.50;65.50;;;2.34;92.66;95578.88;4998695;28;19920;-53
2022/12/02 09:56:30;;;;;;;;;;;7.60;65.50;;;2.36;93.32;95576.84;4988999;28;19909;-56
2022/12/02 09:58:56;;;;;;;;;;;7.60;65.40;;;2.37;93.06;95570.56;4984061;28;19916;-52
2022/12/02 10:01:25;;;;;;;;;;;7.60;65.40;;;2.38;92.41;95566.91;4979091;28;19918;-55
2022/12/02 10:03:52;;;;;;;;;;;7.60;65.40;;;2.42;93.06;95575.22;4967307;28;19920;-56
2022/12/02 10:06:28;;;;;;;;;;;7.60;65.40;;;2.47;92.83;95570.91;4978284;28;20316;-56
2022/12/02 10:08:57;;;;;;;;;;;7.60;66.10;;;2.50;92.76;95572.31;4950552;28;19913;-56
2022/12/02 10:11:33;;;;;;;;;;;7.70;65.40;;;2.50;92.25;95573.09;4986659;28;19917;-55
2022/12/02 10:14:01;;;;;;;;;;;7.70;65.40;;;2.55;92.03;95565.38;4963685;28;19913;-56
2022/12/02 10:16:32;;;;;;;;;;;7.80;65.50;;;2.61;91.83;95562.94;4973049;28;20435;-54
2022/12/02 10:19:04;;;;;;;;;;;7.80;65.40;;;2.66;92.23;95569.13;4983130;28;19913;-53
2022/12/02 10:21:30;;;;;;;;;;;7.90;65.40;;;2.74;91.46;95562.81;4975968;28;19922;-55
2022/12/02 10:24:02;;;;;;;;;;;7.90;65.30;;;2.75;90.75;95557.31;4971085;28;19910;-55
2022/12/02 10:26:49;;;;;;;;;;;8.10;65.30;;;2.83;90.14;95552.81;5027582;23;20019;-55
2022/12/02 10:29:30;;;;;;;;;;;8.10;65.10;;;2.88;89.60;95545.88;4973058;28;20367;-56
2022/12/02 10:32:01;;;;;;;;;;;8.30;65.00;;;2.87;88.66;95543.47;4982235;28;20003;-58
2022/12/02 10:34:29;;;;;;;;;;;8.30;64.90;;;2.93;89.22;95542.59;4989514;28;20012;-57
2022/12/02 10:36:55;;;;;;;;;;;8.40;64.70;;;3.01;89.32;95543.13;4977648;28;20012;-57
2022/12/02 10:39:34;;;;;;;;;;;8.50;64.70;;;3.05;88.45;95538.22;4974949;28;19913;-57
2022/12/02 10:42:02;;;;;;;;;;;8.50;64.60;;;3.12;88.30;95538.16;4972681;28;19914;-58
2022/12/02 10:44:43;;;;;;;;;;;8.50;64.50;;;3.17;87.59;95538.31;4970252;28;19914;-58
2022/12/02 10:47:23;;;;;;;;;;;8.60;64.40;;;3.22;88.13;95534.00;4970390;28;19909;-57
2022/12/02 10:49:57;;;;;;;;;;;8.70;64.40;;;3.29;87.70;95533.94;4981028;28;19921;-58
2022/12/02 10:52:37;;;;;;;;;;;8.70;64.30;;;3.36;87.56;95528.59;4972106;28;20004;-57
2022/12/02 10:55:09;;;;;;;;;;;8.80;64.30;;;3.38;87.05;95532.59;4982458;28;19920;-58
2022/12/02 10:57:37;;;;;;;;;;;8.80;64.30;;;3.39;86.41;95523.69;4968393;28;19909;-56
2022/12/02 11:00:25;;;;;;;;;;;8.90;64.20;;;3.46;86.37;95526.25;4967082;28;20028;-54
2022/12/02 11:02:59;;;;;;;;;;;8.90;64.10;;;3.50;85.44;95519.50;4978706;28;19917;-58
2022/12/02 11:05:32;;;;;;;;;;;8.90;64.10;;;3.48;84.68;95519.72;4972587;28;19919;-57
2022/12/02 11:08:01;;;;;;;;;;;9.00;64.00;;;3.54;84.66;95511.94;4975937;28;19913;-55
2022/12/02 11:10:41;;;;;;;;;;;9.00;63.90;;;3.57;84.31;95516.78;4975790;28;19977;-56
2022/12/02 11:13:13;;;;;;;;;;;9.10;63.80;;;3.64;84.44;95514.88;4968654;28;20368;-58
2022/12/02 11:15:48;;;;;;;;;;;9.20;63.80;;;3.71;84.32;95512.97;4962252;28;19985;-56
2022/12/02 11:18:56;;;;;;;;;;;9.20;63.60;;;3.77;84.27;95509.44;4970447;28;19909;-58
2022/12/02 11:21:28;;;;;;;;;;;9.40;63.60;;;3.80;83.75;95511.63;4964739;28;19921;-58
2022/12/02 11:24:22;;;;;;;;;;;9.40;63.40;;;3.89;83.63;95506.84;4981143;28;20509;-57
2022/12/02 11:27:02;;;;;;;;;;;9.50;63.30;;;3.94;83.44;95505.13;4989517;28;19917;-55
2022/12/02 11:29:41;;;;;;;;;;;9.60;63.30;;;4.01;83.90;95504.22;4989626;28;19963;-57
2022/12/02 11:32:21;;;;;;;;;;;9.70;63.30;;;3.97;81.67;95497.81;4964313;28;19909;-56
2022/12/02 11:34:56;;;;;;;;;;;9.80;63.10;;;4.07;81.93;95492.78;4976115;28;20387;-55
2022/12/02 11:37:36;;;;;;;;;;;9.90;63.00;;;4.11;82.56;95496.59;4971966;28;20303;-56
2022/12/02 11:40:10;;;;;;;;;;;10.00;62.80;;;4.17;81.74;95493.88;4989679;28;19948;-58
2022/12/02 11:42:39;;;;;;;;;;;10.10;63.40;;;4.24;82.50;95498.22;4987484;28;19918;-58
2022/12/02 11:45:18;;;;;;;;;;;10.20;62.50;;;4.29;80.96;95498.34;4970274;28;19909;-58
2022/12/02 11:47:53;;;;;;;;;;;10.30;62.40;;;4.27;79.74;95488.03;4978417;28;20390;-58
2022/12/02 11:50:43;;;;;;;;;;;10.30;62.20;;;4.39;80.06;95488.84;4988322;28;19917;-57
2022/12/02 11:53:21;;;;;;;;;;;10.30;62.10;;;4.45;79.96;95481.88;4972117;28;19910;-53
2022/12/02 11:55:52;;;;;;;;;;;10.30;62.00;;;4.51;79.15;95474.84;4950571;28;19950;-52
2022/12/02 11:58:18;;;;;;;;;;;10.30;62.00;;;4.47;78.33;95479.78;4955880;28;19997;-53